Terminal Aerodrome Forecast
Issued by NWS

Home | Current Version | Previous Version | Text Only | Print | Product List | Glossary Off
Versions: 1 2 3 4 5 6 7 8 9 10 11 12 13 14 15 16 17

267
FTUS41 KCLE 191739 AAC
TAFFDY
TAF AMD
KFDY 191739Z 1918/2018 13005KT P6SM VCSH SCT007 BKN035
      TEMPO 1918/1922 3SM -TSRA BKN007CB OVC015
     FM200000 VRB03KT P6SM SCT050 BKN100
     FM200800 00000KT 5SM BR SCT025 BKN035
      TEMPO 2010/2014 1/2SM FG BKN002
     FM201400 23006KT P6SM SCT025 BKN040=

USA.gov is the U.S. government's official web portal to all federal, state and local government web resources and services.